Cmb Ariane — VRIT7 — position and weather

sailwx.info

Track history (hours):
 
Tides and Currents Weather Stations Pressure Air Temp Water Temp Dewpoint Dewpoint Depression Visibility Wind Speed Wind Dir Waves Ship Positions

Cmb Ariane

Last reported at 2014-Jul-24 16:33 UTC. Time now 2014-Jul-30 13:13 UTC.
Position N 43°47' W 005°20'.

Length 180 m; draft 6.6 m.

Type: Cargo ship. MMSI: 477229600.

Date/timePositionNaut miles runAvg speedWind from/ knotsBaromVisibWave heightAir tempDewpointWater temp
2014-Jul-24 16:33N 43°47' W 005°20'1611.6
2014-Jul-24 15:11N 43°50' W 005°41'711.0
2014-Jul-24 14:31N 43°51' W 005°51'335 8.3
2014-Jul-22 22:21N 39°08' W 009°51'1910.5
2014-Jul-22 20:33N 38°49' W 009°51'1210.5
2014-Jul-22 19:27N 38°38' W 009°50'910.1
2014-Jul-22 18:33N 38°29' W 009°49'1010.4
2014-Jul-22 17:33N 38°19' W 009°46'1010.4
2014-Jul-22 16:33N 38°09' W 009°41'10 9.8
2014-Jul-22 15:32N 37°59' W 009°38'9 9.5
2014-Jul-22 14:33N 37°50' W 009°36'10 9.6
2014-Jul-22 13:33N 37°41' W 009°33'1111.1
2014-Jul-22 12:33N 37°30' W 009°30'1111.2
2014-Jul-22 11:33N 37°19' W 009°27'1010.2
2014-Jul-22 10:33N 37°09' W 009°24'1010.4
2014-Jul-22 09:33N 36°59' W 009°21'1010.1
2014-Jul-22 08:34N 36°50' W 009°15'1110.5
2014-Jul-22 07:33N 36°44' W 009°04'1110.7
2014-Jul-22 06:33N 36°43' W 008°51'1111.0
2014-Jul-22 05:33N 36°44' W 008°38'1211.6
2014-Jul-22 04:33N 36°45' W 008°23'1211.8
2014-Jul-22 03:33N 36°45' W 008°08'1211.6
2014-Jul-22 02:29N 36°47' W 007°53'  
2014-Jul-15 04:22N 36°04' W 005°20'3 0.3
2014-Jul-14 18:21N 36°08' W 005°22'0 0.0
2014-Jul-14 16:33N 36°08' W 005°22'  
Track history (hours):
 
Tides and Currents Weather Stations Pressure Air Temp Water Temp Dewpoint Dewpoint Depression Visibility Wind Speed Wind Dir Waves Ship Positions

Cmb Ariane

Last reported at 2014-Jul-24 16:33 UTC. Time now 2014-Jul-30 13:13 UTC.
Position N 43°47' W 005°20'.

Length 180 m; draft 6.6 m.

Type: Cargo ship. MMSI: 477229600.

Date/timePositionNaut miles runAvg speedWind from/ knotsBaromVisibWave heightAir tempDewpointWater temp
2014-Jul-24 16:33N 43°47' W 005°20'1611.6
2014-Jul-24 15:11N 43°50' W 005°41'711.0
2014-Jul-24 14:31N 43°51' W 005°51'335 8.3
2014-Jul-22 22:21N 39°08' W 009°51'1910.5
2014-Jul-22 20:33N 38°49' W 009°51'1210.5
2014-Jul-22 19:27N 38°38' W 009°50'910.1
2014-Jul-22 18:33N 38°29' W 009°49'1010.4
2014-Jul-22 17:33N 38°19' W 009°46'1010.4
2014-Jul-22 16:33N 38°09' W 009°41'10 9.8
2014-Jul-22 15:32N 37°59' W 009°38'9 9.5
2014-Jul-22 14:33N 37°50' W 009°36'10 9.6
2014-Jul-22 13:33N 37°41' W 009°33'1111.1
2014-Jul-22 12:33N 37°30' W 009°30'1111.2
2014-Jul-22 11:33N 37°19' W 009°27'1010.2
2014-Jul-22 10:33N 37°09' W 009°24'1010.4
2014-Jul-22 09:33N 36°59' W 009°21'1010.1
2014-Jul-22 08:34N 36°50' W 009°15'1110.5
2014-Jul-22 07:33N 36°44' W 009°04'1110.7
2014-Jul-22 06:33N 36°43' W 008°51'1111.0
2014-Jul-22 05:33N 36°44' W 008°38'1211.6
2014-Jul-22 04:33N 36°45' W 008°23'1211.8
2014-Jul-22 03:33N 36°45' W 008°08'1211.6
2014-Jul-22 02:29N 36°47' W 007°53'  
2014-Jul-15 04:22N 36°04' W 005°20'3 0.3
2014-Jul-14 18:21N 36°08' W 005°22'0 0.0
2014-Jul-14 16:33N 36°08' W 005°22'  

Dump ship's entire track history